Latest Weather Observations for Samuel Hill

IDQ60801

Issued at 12:22 am EST Thursday 26 May 2022 (issued every 10 minutes, with the page automatically refreshed every 10 minutes)

About weather observations | Map of weather stations | Latest weather observations for QLD | Other Formats
Station Details ID: 033308 Name: SAMUEL HILL AERO Lat: -22.74 Lon: 150.66 Height: 31.0 m
Data from the previous 72 hours. | See also: Recent months at Samuel Hill
Date/Time
EST
Temp
°C
App
Temp
°C
Dew
Point
°C
Rel
Hum
%
Delta-T
°C
Wind Press
QNH
hPa
Press
MSL
hPa
Rain since
9am
mm
Dir  Spd
km/h
Gust
km/h
Spd
kts
Gust
kts
26/12:04am 20.3 20.6 17.9 86 1.5 SE 13 22 7 12 1015.0 1014.9 0.0
26/12:00am 20.4 20.7 18.0 86 1.5 SSE 13 22 7 12 1015.1 1015.0 0.0
 
Date/Time
EST
Temp
°C
App
Temp
°C
Dew
Point
°C
Rel
Hum
%
Delta-T
°C
Wind Press
QNH
hPa
Press
MSL
hPa
Rain since
9am
mm
Dir  Spd
km/h
Gust
km/h
Spd
kts
Gust
kts
25/11:44pm 20.3 20.3 18.2 88 1.3 SSE 15 24 8 13 1015.1 1015.0 0.0
25/11:30pm 20.3 21.1 18.2 88 1.3 SSE 11 17 6 9 1015.0 1014.9 0.0
25/11:00pm 20.1 20.9 18.1 88 1.2 SSE 11 17 6 9 1015.1 1015.0 0.0
25/10:30pm 20.3 21.5 18.2 88 1.3 SE 9 17 5 9 1015.2 1015.1 0.0
25/10:00pm 20.1 20.9 18.2 89 1.2 SE 11 17 6 9 1015.4 1015.3 0.0
25/09:30pm 19.3 20.4 18.1 93 0.7 SE 9 11 5 6 1015.5 1015.4 0.0
25/09:00pm 18.4 19.9 17.6 95 0.5 SSE 6 7 3 4 1015.7 1015.6 0.0
25/08:30pm 18.4 19.9 17.6 95 0.5 SSE 6 9 3 5 1015.7 1015.6 0.0
25/08:00pm 18.7 20.2 17.5 93 0.7 SSE 6 7 3 4 1015.9 1015.8 0.0
25/07:30pm 19.0 20.6 17.8 93 0.7 SSE 6 7 3 4 1015.9 1015.8 0.0
25/07:00pm 19.4 21.1 18.1 92 0.8 S 6 9 3 5 1015.9 1015.8 0.0
25/06:30pm 19.8 21.3 18.1 90 1.1 S 7 11 4 6 1015.6 1015.5 0.0
25/06:00pm 20.4 22.2 18.2 87 1.4 S 6 9 3 5 1015.4 1015.3 0.0
25/05:30pm 20.8 22.4 18.2 85 1.6 SSE 7 9 4 5 1015.1 1015.0 0.0
25/05:00pm 21.4 22.2 18.2 82 2.0 SE 11 17 6 9 1014.9 1014.8 0.0
25/04:30pm 21.7 22.1 18.1 80 2.2 SE 13 22 7 12 1014.6 1014.5 0.0
25/04:00pm 22.4 22.9 18.4 78 2.5 SE 13 19 7 10 1014.4 1014.3 0.0
25/03:30pm 22.3 22.6 17.9 76 2.7 SE 13 20 7 11 1014.4 1014.3 0.0
25/03:00pm 22.5 22.3 17.6 74 3.0 SSE 15 22 8 12 1014.5 1014.4 0.0
25/02:30pm 22.7 22.6 18.7 78 2.5 SSE 17 24 9 13 1014.7 1014.6 0.0
25/02:00pm 22.6 22.1 17.9 75 2.9 SE 17 30 9 16 1014.9 1014.8 0.0
25/01:30pm 22.2 21.4 18.0 77 2.6 SE 19 30 10 16 1015.1 1015.0 0.0
25/01:00pm 23.1 23.3 18.6 76 2.8 SE 15 22 8 12 1015.4 1015.3 0.0
25/12:30pm 22.4 22.2 18.4 78 2.5 SSE 17 26 9 14 1016.1 1016.0 0.0
25/12:00pm 22.0 22.0 18.2 79 2.4 SSE 15 26 8 14 1016.5 1016.4 0.0
25/11:30am 22.0 21.8 18.4 80 2.3 SSE 17 24 9 13 1016.7 1016.6 0.0
25/11:00am 21.8 21.4 18.0 79 2.4 SE 17 26 9 14 1017.2 1017.1 0.0
25/10:30am 21.5 20.7 18.1 81 2.1 SE 19 28 10 15 1017.4 1017.3 0.0
25/10:00am 21.3 20.9 18.1 82 2.0 SSE 17 24 9 13 1017.6 1017.5 0.0
25/09:30am 21.2 21.3 18.4 84 1.7 SSE 15 24 8 13 1017.8 1017.7 0.0
25/09:13am 21.1 20.8 18.3 84 1.7 SSE 17 24 9 13 1017.8 1017.7 0.0
25/09:00am 20.9 21.0 18.3 85 1.6 SSE 15 20 8 11 1017.8 1017.7 1.8
25/08:30am 20.2 20.6 18.1 88 1.3 SSE 13 19 7 10 1017.7 1017.6 1.8
25/08:00am 20.1 20.5 18.1 88 1.2 SSE 13 20 7 11 1017.3 1017.2 1.8
25/07:30am 19.8 20.6 18.1 90 1.1 S 11 19 6 10 1017.2 1017.1 1.8
25/07:00am 19.4 20.8 17.9 91 0.9 S 7 13 4 7 1017.1 1017.0 1.8
25/06:30am 19.2 20.3 17.9 92 0.8 S 9 11 5 6 1016.5 1016.4 1.8
25/06:00am 19.1 20.0 17.6 91 0.9 S 9 13 5 7 1016.3 1016.2 1.8
25/05:30am 18.9 19.8 17.6 92 0.8 SSE 9 15 5 8 1016.0 1015.9 1.8
25/05:00am 18.7 19.5 17.4 92 0.8 SSE 9 13 5 7 1015.8 1015.7 1.8
25/04:30am 18.7 19.5 17.4 92 0.8 S 9 17 5 9 1015.8 1015.7 1.8
25/04:00am 18.5 19.4 17.5 94 0.6 SSE 9 15 5 8 1015.8 1015.7 1.6
25/03:30am 18.4 19.3 17.6 95 0.5 S 9 13 5 7 1016.0 1015.9 1.6
25/03:15am 18.3 19.3 17.7 96 0.4 S 9 15 5 8 1016.1 1016.0 1.6
25/03:00am 18.5 18.7 17.7 95 0.5 SSE 13 19 7 10 1016.0 1015.9 1.6
25/02:53am 18.6 18.7 17.4 93 0.7 SSE 13 19 7 10 1016.0 1015.9 1.6
25/02:50am 18.7 19.2 17.5 93 0.7 SSE 11 17 6 9 1016.0 1015.9 1.6
25/02:33am 19.1 19.6 17.4 90 1.0 SSE 11 17 6 9 1016.0 1015.9 1.6
25/02:31am 19.3 19.8 17.4 89 1.2 SSE 11 17 6 9 1016.1 1016.0 1.6
25/02:30am 19.3 19.7 17.3 88 1.2 SSE 11 17 6 9 1016.1 1016.0 1.6
25/02:00am 19.5 20.1 17.6 89 1.2 S 11 15 6 8 1016.5 1016.4 1.6
25/01:30am 19.7 19.9 17.7 88 1.2 SSE 13 20 7 11 1016.7 1016.6 1.6
25/01:00am 19.8 19.7 17.8 88 1.2 SSE 15 22 8 12 1016.9 1016.8 1.6
25/12:30am 20.1 19.9 17.7 86 1.5 SSE 15 22 8 12 1017.0 1016.9 1.6
25/12:00am 20.2 20.1 17.8 86 1.5 SSE 15 24 8 13 1017.3 1017.2 1.6
 
Date/Time
EST
Temp
°C
App
Temp
°C
Dew
Point
°C
Rel
Hum
%
Delta-T
°C
Wind Press
QNH
hPa
Press
MSL
hPa
Rain since
9am
mm
Dir  Spd
km/h
Gust
km/h
Spd
kts
Gust
kts
24/11:30pm 20.3 20.6 17.9 86 1.5 SSE 13 20 7 11 1017.4 1017.3 1.6
24/11:00pm 20.6 20.9 18.0 85 1.6 SSE 13 22 7 12 1017.6 1017.5 1.6
24/10:30pm 20.5 20.9 18.1 86 1.5 SSE 13 19 7 10 1017.8 1017.7 1.6
24/10:00pm 20.7 21.0 17.9 84 1.7 SSE 13 19 7 10 1017.8 1017.7 1.6
24/09:30pm 20.9 20.4 17.7 82 2.0 SE 17 26 9 14 1017.9 1017.8 1.6
24/09:00pm 20.7 21.7 17.7 83 1.8 SSE 9 17 5 9 1018.0 1017.9 1.6
24/08:30pm 20.8 21.1 18.0 84 1.7 SE 13 24 7 13 1017.9 1017.8 1.6
24/08:00pm 20.7 21.6 18.3 86 1.5 SSE 11 22 6 12 1017.7 1017.6 1.6
24/07:30pm 20.5 21.7 18.3 87 1.4 SE 9 15 5 8 1017.6 1017.5 1.6
24/07:00pm 20.7 21.6 18.3 86 1.5 SSE 11 17 6 9 1017.1 1017.0 1.6
24/06:30pm 20.4 21.4 18.7 90 1.1 SSE 11 17 6 9 1016.7 1016.6 1.6
24/06:00pm 20.0 21.4 18.7 92 0.8 SSE 9 13 5 7 1016.3 1016.2 1.6
24/05:30pm 20.0 21.2 18.3 90 1.1 SSE 9 13 5 7 1016.2 1016.1 1.6
24/05:00pm 20.3 21.0 18.8 91 0.9 SSE 13 20 7 11 1016.1 1016.0 1.6
24/04:30pm 21.0 20.9 18.8 87 1.4 SSE 17 22 9 12 1015.9 1015.8 1.6
24/04:00pm 22.4 21.9 18.6 79 2.4 SE 19 30 10 16 1015.5 1015.4 1.6
24/03:30pm 22.4 22.9 19.2 82 2.0 SE 15 24 8 13 1015.4 1015.3 1.6
24/03:00pm 21.2 21.5 18.8 86 1.5 SE 15 22 8 12 1015.4 1015.3 1.6
24/02:50pm 21.3 21.6 19.6 90 1.1 SE 17 26 9 14 1015.5 1015.4 1.6
24/02:35pm 20.6 19.5 18.7 89 1.2 SE 22 33 12 18 1015.5 1015.4 1.4
24/02:30pm 21.6 21.1 18.6 83 1.9 ESE 19 33 10 18 1015.6 1015.5 1.4
24/02:00pm 23.2 23.0 18.5 75 3.0 SE 17 32 9 17 1015.3 1015.2 0.8
24/01:30pm 23.0 22.3 18.3 75 3.0 SSE 19 28 10 15 1015.1 1015.0 0.8
24/01:00pm 22.3 22.5 19.3 83 1.9 SSE 17 28 9 15 1015.5 1015.4 0.8
24/12:31pm 21.7 21.1 18.5 82 2.0 SE 19 30 10 16 1016.0 1015.9 0.8
24/12:30pm 21.7 21.2 18.7 83 1.9 SE 19 30 10 16 1016.0 1015.9 0.8
24/12:08pm 21.6 21.6 19.0 85 1.6 SSE 17 26 9 14 1016.2 1016.1 0.8
24/12:00pm 21.5 22.0 20.0 91 1.0 SE 17 28 9 15 1016.4 1016.3 0.8
24/11:52am 21.1 21.4 19.6 91 1.0 SE 17 32 9 17 1016.5 1016.4 0.8
24/11:30am 21.6 22.1 19.3 87 1.5 SE 15 26 8 14 1016.7 1016.6 0.6
24/11:00am 21.7 22.9 20.7 94 0.6 SE 15 24 8 13 1016.9 1016.8 0.6
24/10:42am 20.7 21.8 19.7 94 0.6 SE 13 20 7 11 1017.1 1017.0 0.6
24/10:31am 20.6 21.6 19.4 93 0.8 SE 13 22 7 12 1017.2 1017.1 0.6
24/10:30am 20.7 22.2 19.7 94 0.6 SSE 11 22 6 12 1017.2 1017.1 0.6
24/10:00am 19.9 20.3 19.1 95 0.5 SSE 15 24 8 13 1017.5 1017.4 0.6
24/09:30am 19.4 19.2 18.6 95 0.5 SSE 17 24 9 13 1017.7 1017.6 0.6
24/09:15am 19.4 20.4 18.7 96 0.4 SSE 11 20 6 11 1017.7 1017.6 0.0
24/09:03am 19.1 19.6 18.4 96 0.4 SSE 13 19 7 10 1017.6 1017.5 0.0
24/09:00am 19.1 20.0 18.4 96 0.4 SSE 11 19 6 10 1017.7 1017.6 12.6
24/08:32am 19.0 20.2 18.3 96 0.4 SSE 9 17 5 9 1017.5 1017.4 12.6
24/08:30am 19.0 20.2 18.3 96 0.4 SSE 9 13 5 7 1017.5 1017.4 12.6
24/08:04am 18.8 19.7 18.3 97 0.3 SSE 11 17 6 9 1017.4 1017.3 12.6
24/08:00am 18.8 19.7 18.3 97 0.3 SSE 11 17 6 9 1017.4 1017.3 12.6
24/07:30am 18.5 19.6 18.0 97 0.3 S 9 15 5 8 1017.2 1017.1 12.2
24/07:18am 18.5 19.6 18.0 97 0.3 S 9 17 5 9 1017.0 1016.9 12.0
24/07:15am 18.5 19.2 18.0 97 0.3 S 11 17 6 9 1016.9 1016.8 12.0
24/07:00am 18.4 19.1 17.9 97 0.3 SSE 11 20 6 11 1016.7 1016.6 12.0
24/06:30am 18.2 18.4 17.7 97 0.3 SSE 13 22 7 12 1016.4 1016.3 12.0
24/06:09am 18.1 18.6 17.5 96 0.4 SSE 11 19 6 10 1016.2 1016.1 11.6
24/06:00am 18.1 18.5 17.3 95 0.5 SSE 11 17 6 9 1016.0 1015.9 11.6
24/05:51am 18.1 18.1 17.3 95 0.5 SSE 13 20 7 11 1015.8 1015.7 11.6
24/05:38am 18.1 18.1 17.3 95 0.5 SSE 13 20 7 11 1015.8 1015.7 11.6
24/05:30am 18.1 18.1 17.3 95 0.5 SSE 13 20 7 11 1015.8 1015.7 11.6
24/05:00am 17.9 17.9 17.3 96 0.4 SSE 13 20 7 11 1015.7 1015.6 11.6
24/04:50am 17.8 17.8 17.2 96 0.4 S 13 20 7 11 1015.7 1015.6 11.6
24/04:30am 17.8 17.8 17.2 96 0.4 S 13 20 7 11 1015.6 1015.5 11.6
24/04:00am 17.8 17.8 17.2 96 0.4 S 13 20 7 11 1015.8 1015.7 11.4
24/03:30am 18.0 17.7 17.4 96 0.4 S 15 26 8 14 1015.8 1015.7 10.8
24/03:00am 17.9 17.9 17.1 95 0.5 S 13 20 7 11 1015.6 1015.5 10.8
24/02:34am 18.0 17.5 16.9 93 0.7 S 15 24 8 13 1015.8 1015.7 10.8
24/02:30am 18.1 17.6 16.8 92 0.8 SSE 15 24 8 13 1015.8 1015.7 10.8
24/02:00am 18.3 17.7 16.6 90 1.0 S 15 24 8 13 1016.0 1015.9 10.8
24/01:31am 18.4 18.2 16.6 89 1.1 SSE 13 20 7 11 1016.4 1016.3 10.8
24/01:30am 18.4 18.2 16.6 89 1.1 SSE 13 20 7 11 1016.4 1016.3 10.8
24/01:00am 18.4 18.2 16.6 89 1.1 S 13 19 7 10 1016.5 1016.4 10.8
24/12:30am 18.4 17.8 16.6 89 1.1 S 15 20 8 11 1016.8 1016.7 10.8
24/12:00am 18.3 18.1 16.6 90 1.0 S 13 20 7 11 1017.0 1016.9 10.8
 
Date/Time
EST
Temp
°C
App
Temp
°C
Dew
Point
°C
Rel
Hum
%
Delta-T
°C
Wind Press
QNH
hPa
Press
MSL
hPa
Rain since
9am
mm
Dir  Spd
km/h
Gust
km/h
Spd
kts
Gust
kts
23/11:30pm 18.4 18.6 16.7 90 1.0 S 11 19 6 10 1017.2 1017.1 10.8
23/11:00pm 18.3 18.4 16.6 90 1.0 S 11 20 6 11 1017.4 1017.3 10.8
23/10:30pm 18.2 18.1 16.9 92 0.8 S 13 20 7 11 1017.4 1017.3 10.8
23/10:00pm 18.2 18.0 16.7 91 0.9 SSE 13 20 7 11 1017.4 1017.3 10.8
23/09:30pm 18.4 17.8 16.7 90 1.0 SSE 15 22 8 12 1017.5 1017.4 10.8
23/09:00pm 18.2 18.1 16.9 92 0.8 S 13 19 7 10 1017.7 1017.6 10.8
23/08:30pm 18.2 18.1 16.9 92 0.8 S 13 20 7 11 1017.5 1017.4 10.8
23/08:00pm 18.3 17.8 17.0 92 0.8 S 15 22 8 12 1017.7 1017.6 10.8
23/07:30pm 18.2 17.7 17.0 93 0.7 S 15 22 8 12 1017.5 1017.4 10.8
23/07:00pm 18.5 18.5 17.3 93 0.7 S 13 22 7 12 1017.4 1017.3 10.8
23/06:30pm 18.5 18.5 17.3 93 0.7 S 13 24 7 13 1017.0 1016.9 10.8
23/06:00pm 18.5 18.2 17.3 93 0.7 S 15 24 8 13 1016.9 1016.8 10.8
23/05:30pm 18.5 18.3 17.5 94 0.6 S 15 22 8 12 1016.8 1016.7 10.6
23/05:11pm 18.7 18.5 17.5 93 0.7 S 15 22 8 12 1016.7 1016.6 10.4
23/05:00pm 18.6 18.9 17.8 95 0.5 SSW 13 22 7 12 1016.5 1016.4 10.4
23/04:58pm 18.6 18.5 17.8 95 0.5 SSW 15 22 8 12 1016.5 1016.4 10.2
23/04:30pm 18.8 18.4 18.0 95 0.5 S 17 24 9 13 1016.4 1016.3 10.0
23/04:00pm 18.8 18.4 18.0 95 0.5 S 17 24 9 13 1016.2 1016.1 9.2
23/03:58pm 18.8 18.4 18.0 95 0.5 S 17 24 9 13 1016.2 1016.1 9.0
23/03:41pm 18.8 18.4 18.1 96 0.4 SSE 17 26 9 14 1016.2 1016.1 7.2
23/03:39pm 18.8 18.8 18.1 96 0.4 SSE 15 24 8 13 1016.2 1016.1 7.0
23/03:30pm 18.8 18.0 18.1 96 0.4 SSE 19 32 10 17 1016.2 1016.1 6.2
23/03:00pm 18.9 18.0 18.1 95 0.5 SSE 20 33 11 18 1016.1 1016.0 2.6
23/02:30pm 19.1 18.4 18.3 95 0.5 SSE 19 30 10 16 1016.1 1016.0 1.2
23/02:00pm 19.5 18.9 18.5 94 0.6 SSE 19 35 10 19 1016.0 1015.9 0.8
23/01:30pm 19.6 18.9 18.6 94 0.6 SSE 20 35 11 19 1016.1 1016.0 0.6
23/01:00pm 19.5 18.7 18.5 94 0.6 SSE 20 30 11 16 1016.4 1016.3 0.4
23/12:30pm 19.6 18.9 18.6 94 0.6 SSE 20 37 11 20 1016.8 1016.7 0.0
23/12:19pm 19.6 18.7 18.3 92 0.8 SSE 20 35 11 19 1016.9 1016.8 0.0
23/12:14pm 19.7 18.9 18.5 93 0.7 SSE 20 32 11 17 1017.0 1016.9 0.0
23/12:00pm 19.9 19.2 18.7 93 0.7 SSE 20 39 11 21 1017.0 1016.9 0.0
23/11:44am 20.1 19.3 18.4 90 1.1 SE 20 32 11 17 1017.2 1017.1 0.0
23/11:42am 20.2 19.3 18.3 89 1.2 SE 20 33 11 18 1017.1 1017.0 0.0
23/11:30am 21.3 20.1 18.3 83 1.9 SE 22 35 12 19 1017.1 1017.0 0.0
23/11:00am 21.5 19.7 17.9 80 2.2 SSE 24 39 13 21 1017.4 1017.3 0.0
23/10:54am 21.6 20.2 18.0 80 2.2 SE 22 35 12 19 1017.5 1017.4 0.0
23/10:30am 20.9 19.4 17.7 82 2.0 SSE 22 37 12 20 1017.8 1017.7 0.0
23/10:00am 20.7 19.9 17.9 84 1.7 SSE 19 32 10 17 1018.1 1018.0 0.0
23/09:30am 20.1 19.5 17.5 85 1.6 SSE 17 28 9 15 1018.2 1018.1 0.0
23/09:03am 20.1 19.4 17.3 84 1.7 SE 17 32 9 17 1018.0 1017.9 0.0
23/09:00am 20.1 19.1 17.5 85 1.6 SE 19 32 10 17 1018.0 1017.9 0.0
23/08:30am 19.9 19.2 17.3 85 1.6 SE 17 26 9 14 1017.6 1017.5 0.0
23/08:00am 19.9 19.6 17.3 85 1.6 SE 15 26 8 14 1017.5 1017.4 0.0
23/07:30am 19.2 19.0 16.6 85 1.6 SSE 13 19 7 10 1017.2 1017.1 0.0
23/07:00am 18.9 19.4 16.5 86 1.4 SSE 9 15 5 8 1017.0 1016.9 0.0
23/06:30am 18.8 19.3 16.6 87 1.3 SSE 9 15 5 8 1016.9 1016.8 0.0
23/06:00am 19.2 19.3 16.4 84 1.7 S 11 15 6 8 1016.7 1016.6 0.0
23/05:34am 19.2 19.4 16.8 86 1.4 S 11 17 6 9 1016.3 1016.2 0.0
23/05:30am 19.3 19.1 16.7 85 1.6 SSE 13 17 7 9 1016.3 1016.2 0.0
23/05:14am 18.9 18.4 16.9 88 1.2 SSE 15 24 8 13 1016.3 1016.2 0.0
23/05:00am 19.0 18.2 17.0 88 1.2 SSE 17 35 9 19 1016.1 1016.0 0.0
23/04:30am 19.6 19.0 16.6 83 1.8 SSE 15 22 8 12 1015.7 1015.6 0.0
23/04:00am 19.5 18.9 16.7 84 1.7 SSE 15 22 8 12 1015.7 1015.6 0.0
23/03:30am 19.6 18.8 17.0 85 1.6 SSE 17 24 9 13 1015.7 1015.6 0.0
23/03:00am 19.5 19.1 17.1 86 1.5 SSE 15 22 8 12 1015.6 1015.5 0.0
23/02:30am 19.7 18.8 16.9 84 1.7 SSE 17 28 9 15 1015.7 1015.6 0.0
23/02:26am 19.7 19.3 17.1 85 1.6 SSE 15 24 8 13 1015.8 1015.7 0.0
23/02:00am 19.5 19.3 17.5 88 1.2 SSE 15 22 8 12 1016.1 1016.0 0.0
23/01:47am 19.4 19.5 17.5 89 1.2 SSE 13 22 7 12 1016.1 1016.0 0.0
23/01:30am 19.7 18.7 17.5 87 1.3 SSE 19 30 10 16 1016.0 1015.9 0.0
23/01:00am 20.1 19.8 17.3 84 1.7 SSE 15 22 8 12 1016.0 1015.9 0.0
23/12:30am 20.1 19.9 17.5 85 1.6 SSE 15 26 8 14 1016.0 1015.9 0.0

Other formats

Comma delimited format used in spreadsheet applications
http://www.bom.gov.au/fwo/IDQ60801/IDQ60801.94370.axf

JavaScript Object Notation format (JSON) in row-major order
http://www.bom.gov.au/fwo/IDQ60801/IDQ60801.94370.json

Data quality

Most of these data are generated automatically and are frequently updated. Quality checks on data are not normally performed. It is possible for incorrect values to appear. Refer to information at About Latest Weather Observations and please check the disclaimer before using these data.